createdAt,value
2019-01-20T00:00:01.772Z,50.66
2019-01-20T00:02:29.089Z,50.64
2019-01-20T00:04:56.288Z,50.43
2019-01-20T00:07:23.481Z,50.43
2019-01-20T00:09:50.789Z,50.68
2019-01-20T00:12:18.025Z,50.67
2019-01-20T00:14:45.191Z,50.68
2019-01-20T00:17:12.445Z,50.89
2019-01-20T00:19:39.551Z,50.89
2019-01-20T00:22:06.798Z,50.51
2019-01-20T00:24:33.954Z,50.58
2019-01-20T00:27:01.123Z,50.53
2019-01-20T00:29:28.322Z,50.49
2019-01-20T00:31:55.485Z,50.48
2019-01-20T00:34:22.738Z,50.50
2019-01-20T00:36:49.896Z,50.57
2019-01-20T00:39:17.117Z,50.56
2019-01-20T00:41:44.292Z,50.46
2019-01-20T00:44:11.507Z,50.65
2019-01-20T00:46:38.663Z,50.65
2019-01-20T00:49:05.897Z,50.61
2019-01-20T00:51:33.567Z,50.61
2019-01-20T00:54:00.981Z,50.51
2019-01-20T00:56:28.187Z,50.57
2019-01-20T00:58:55.491Z,50.54
2019-01-20T01:01:22.667Z,50.12
2019-01-20T01:03:49.880Z,50.43
2019-01-20T01:06:17.205Z,50.43
2019-01-20T01:08:44.389Z,50.56
2019-01-20T01:11:11.550Z,50.69
2019-01-20T01:13:38.799Z,50.75
2019-01-20T01:16:06.004Z,50.75
2019-01-20T01:18:33.206Z,50.53
2019-01-20T01:21:00.454Z,50.47
2019-01-20T01:23:27.639Z,50.82
2019-01-20T01:25:54.789Z,50.82
2019-01-20T01:28:21.996Z,50.21
2019-01-20T01:30:49.154Z,50.78
2019-01-20T01:33:16.336Z,50.78
2019-01-20T01:35:43.516Z,50.48
2019-01-20T01:38:10.712Z,50.48
2019-01-20T01:40:37.939Z,50.52
2019-01-20T01:43:05.150Z,50.51
2019-01-20T01:45:32.427Z,50.54
2019-01-20T01:47:59.643Z,50.56
2019-01-20T01:50:26.877Z,50.48
2019-01-20T01:52:54.039Z,50.48
2019-01-20T01:55:21.221Z,50.50
2019-01-20T01:57:48.413Z,50.51
2019-01-20T02:00:18.051Z,50.48
2019-01-20T02:02:45.254Z,50.12
2019-01-20T02:05:12.573Z,50.12
2019-01-20T02:07:39.732Z,50.53
2019-01-20T02:10:09.314Z,50.45
2019-01-20T02:12:36.521Z,50.31
2019-01-20T02:15:04.496Z,50.31
2019-01-20T02:17:31.720Z,50.46
2019-01-20T02:19:58.882Z,50.44
2019-01-20T02:22:26.089Z,50.44
2019-01-20T02:24:53.260Z,50.28
2019-01-20T02:27:20.456Z,50.31
2019-01-20T02:29:47.688Z,50.35
2019-01-20T02:32:14.874Z,50.29
2019-01-20T02:34:42.056Z,50.29
2019-01-20T02:37:09.263Z,50.37
2019-01-20T02:39:36.490Z,50.43
2019-01-20T02:42:03.647Z,50.44
2019-01-20T02:44:30.855Z,50.34
2019-01-20T02:46:58.060Z,50.22
2019-01-20T02:49:25.291Z,50.27
2019-01-20T02:51:52.601Z,50.35
2019-01-20T02:54:19.780Z,50.35
2019-01-20T02:56:46.963Z,50.35
2019-01-20T02:59:14.171Z,50.67
2019-01-20T03:01:41.700Z,50.67
2019-01-20T03:04:08.855Z,50.41
2019-01-20T03:06:36.055Z,50.34
2019-01-20T03:09:07.657Z,50.29
2019-01-20T03:11:34.924Z,50.26
2019-01-20T03:14:02.072Z,50.26
2019-01-20T03:16:29.270Z,50.41
2019-01-20T03:18:56.952Z,50.41
2019-01-20T03:21:24.093Z,50.39
2019-01-20T03:23:51.295Z,50.31
2019-01-20T03:26:18.507Z,50.29
2019-01-20T03:28:45.688Z,50.25
2019-01-20T03:31:12.880Z,50.22
2019-01-20T03:33:40.115Z,50.27
2019-01-20T03:36:07.275Z,50.29
2019-01-20T03:38:34.466Z,50.27
2019-01-20T03:41:01.700Z,50.26
2019-01-20T03:43:28.878Z,50.28
2019-01-20T03:45:56.106Z,49.89
2019-01-20T03:48:23.257Z,49.89
2019-01-20T03:50:50.494Z,50.30
2019-01-20T03:53:17.704Z,50.21
2019-01-20T03:55:44.866Z,50.18
2019-01-20T03:58:12.077Z,50.14
2019-01-20T04:00:39.381Z,50.16
2019-01-20T04:03:06.649Z,50.15
2019-01-20T04:05:33.846Z,50.13
2019-01-20T04:08:01.055Z,50.19
2019-01-20T04:10:28.277Z,50.19
2019-01-20T04:12:55.519Z,50.17
2019-01-20T04:15:22.658Z,50.27
2019-01-20T04:17:49.880Z,50.02
2019-01-20T04:20:17.079Z,50.02
2019-01-20T04:22:44.228Z,50.13
2019-01-20T04:25:12.144Z,50.15
2019-01-20T04:27:39.353Z,50.13
2019-01-20T04:30:08.072Z,49.97
2019-01-20T04:32:35.234Z,49.97
2019-01-20T04:35:02.492Z,50.06
2019-01-20T04:37:29.650Z,49.91
2019-01-20T04:39:56.873Z,49.87
2019-01-20T04:42:29.055Z,49.88
2019-01-20T04:44:53.179Z,49.81
2019-01-20T04:47:20.350Z,49.79
2019-01-20T04:49:47.539Z,49.79
2019-01-20T04:52:14.726Z,49.90
2019-01-20T04:54:41.897Z,49.86
2019-01-20T04:57:09.194Z,49.86
2019-01-20T04:59:36.412Z,49.86
2019-01-20T05:02:03.651Z,49.83
2019-01-20T05:04:30.844Z,49.90
2019-01-20T05:06:58.070Z,49.83
2019-01-20T05:09:25.224Z,49.72
2019-01-20T05:11:52.442Z,49.63
2019-01-20T05:14:19.622Z,49.63
2019-01-20T05:16:46.857Z,49.68
2019-01-20T05:19:14.060Z,49.63
2019-01-20T05:21:41.339Z,49.58
2019-01-20T05:24:08.526Z,49.60
2019-01-20T05:26:35.686Z,49.61
2019-01-20T05:29:02.850Z,49.49
2019-01-20T05:31:30.011Z,49.46
2019-01-20T05:33:57.341Z,49.46
2019-01-20T05:36:24.494Z,49.41
2019-01-20T05:38:51.665Z,49.81
2019-01-20T05:41:18.881Z,49.81
2019-01-20T05:43:46.063Z,49.39
2019-01-20T05:46:13.261Z,49.42
2019-01-20T05:48:40.490Z,49.32
2019-01-20T05:51:07.671Z,49.35
2019-01-20T05:53:34.929Z,49.30
2019-01-20T05:56:02.203Z,49.26
2019-01-20T05:58:29.328Z,49.31
2019-01-20T06:00:56.571Z,49.34
2019-01-20T06:03:23.726Z,49.27
2019-01-20T06:05:50.942Z,49.23
2019-01-20T06:08:18.118Z,49.24
2019-01-20T06:10:45.302Z,49.23
2019-01-20T06:13:12.518Z,49.24
2019-01-20T06:15:39.746Z,49.18
2019-01-20T06:18:07.006Z,49.28
2019-01-20T06:20:34.190Z,49.20
2019-01-20T06:23:01.374Z,49.20
2019-01-20T06:25:28.566Z,49.22
2019-01-20T06:27:55.725Z,49.18
2019-01-20T06:30:31.018Z,49.14
2019-01-20T06:32:58.182Z,49.03
2019-01-20T06:35:25.334Z,49.06
2019-01-20T06:37:52.497Z,49.14
2019-01-20T06:40:19.711Z,49.20
2019-01-20T06:42:46.885Z,49.17
2019-01-20T06:45:14.142Z,49.16
2019-01-20T06:47:41.346Z,49.17
2019-01-20T06:50:10.343Z,49.12
2019-01-20T06:52:37.549Z,49.09
2019-01-20T06:55:05.066Z,49.13
2019-01-20T06:57:32.246Z,48.67
2019-01-20T06:59:59.413Z,48.67
2019-01-20T07:02:26.606Z,49.02
2019-01-20T07:04:53.774Z,49.03
2019-01-20T07:07:21.143Z,49.04
2019-01-20T07:09:48.296Z,49.02
2019-01-20T07:12:15.457Z,49.02
2019-01-20T07:14:42.659Z,49.01
2019-01-20T07:17:09.892Z,48.89
2019-01-20T07:19:37.084Z,48.71
2019-01-20T07:22:04.242Z,48.71
2019-01-20T07:24:31.461Z,49.01
2019-01-20T07:26:58.626Z,49.01
2019-01-20T07:29:25.832Z,48.94
2019-01-20T07:31:53.023Z,48.82
2019-01-20T07:34:20.202Z,48.84
2019-01-20T07:36:47.404Z,48.86
2019-01-20T07:39:14.627Z,48.94
2019-01-20T07:41:41.804Z,49.34
2019-01-20T07:44:08.975Z,49.34
2019-01-20T07:46:36.218Z,48.87
2019-01-20T07:49:03.402Z,48.84
2019-01-20T07:51:30.603Z,48.84
2019-01-20T07:53:57.763Z,48.65
2019-01-20T07:56:24.992Z,48.74
2019-01-20T07:58:52.128Z,48.74
2019-01-20T08:01:19.372Z,48.72
2019-01-20T08:03:46.564Z,48.72
2019-01-20T08:06:13.802Z,48.75
2019-01-20T08:08:40.997Z,48.81
2019-01-20T08:11:08.256Z,48.81
2019-01-20T08:13:35.429Z,48.66
2019-01-20T08:16:02.633Z,48.60
2019-01-20T08:18:29.835Z,48.64
2019-01-20T08:20:57.018Z,48.70
2019-01-20T08:23:24.348Z,48.59
2019-01-20T08:25:51.543Z,48.59
2019-01-20T08:28:18.741Z,48.56
2019-01-20T08:30:45.971Z,48.56
2019-01-20T08:33:13.165Z,48.50
2019-01-20T08:35:40.376Z,48.54
2019-01-20T08:38:07.567Z,48.40
2019-01-20T08:40:34.775Z,48.08
2019-01-20T08:43:01.983Z,48.08
2019-01-20T08:46:09.560Z,48.31
2019-01-20T08:48:36.706Z,48.28
2019-01-20T08:51:04.625Z,48.19
2019-01-20T08:53:31.806Z,48.19
2019-01-20T08:55:59.027Z,48.58
2019-01-20T08:58:26.204Z,48.58
2019-01-20T09:00:53.383Z,48.30
2019-01-20T09:03:20.854Z,48.13
2019-01-20T09:05:48.449Z,47.76
2019-01-20T09:08:15.638Z,48.31
2019-01-20T09:10:42.801Z,48.31
2019-01-20T09:13:10.406Z,48.10
2019-01-20T09:15:37.726Z,48.05
2019-01-20T09:18:05.244Z,47.96
2019-01-20T09:20:32.457Z,47.69
2019-01-20T09:22:59.657Z,47.69
2019-01-20T09:25:26.864Z,48.33
2019-01-20T09:27:54.084Z,48.33
2019-01-20T09:30:21.306Z,47.81
2019-01-20T09:32:48.538Z,47.80
2019-01-20T09:35:15.691Z,47.80
2019-01-20T09:37:42.863Z,47.70
2019-01-20T09:40:11.083Z,47.65
2019-01-20T09:42:38.293Z,47.42
2019-01-20T09:45:08.472Z,47.22
2019-01-20T09:47:35.672Z,47.97
2019-01-20T09:50:03.193Z,47.42
2019-01-20T09:52:30.362Z,47.42
2019-01-20T09:54:57.543Z,47.30
2019-01-20T09:57:24.720Z,47.30
2019-01-20T09:59:51.897Z,47.46
2019-01-20T10:02:19.126Z,47.41
2019-01-20T10:04:46.359Z,47.31
2019-01-20T10:07:13.609Z,47.46
2019-01-20T10:09:40.792Z,47.46
2019-01-20T10:12:08.029Z,47.23
2019-01-20T10:14:35.203Z,47.23
2019-01-20T10:17:02.524Z,47.23
2019-01-20T10:19:29.710Z,46.98
2019-01-20T10:21:56.927Z,46.98
2019-01-20T10:24:24.101Z,47.11
2019-01-20T10:26:51.350Z,47.40
2019-01-20T10:29:18.545Z,47.21
2019-01-20T10:31:45.754Z,47.08
2019-01-20T10:34:12.958Z,46.99
2019-01-20T10:36:40.173Z,46.99
2019-01-20T10:39:10.770Z,46.99
2019-01-20T10:41:37.959Z,46.97
2019-01-20T10:44:05.168Z,46.97
2019-01-20T10:46:32.345Z,46.77
2019-01-20T10:48:59.549Z,46.77
2019-01-20T10:51:26.749Z,46.88
2019-01-20T10:53:53.997Z,46.88
2019-01-20T10:56:21.195Z,46.78
2019-01-20T10:58:48.357Z,46.83
2019-01-20T11:01:15.579Z,46.84
2019-01-20T11:03:42.743Z,46.84
2019-01-20T11:06:10.099Z,46.90
2019-01-20T11:08:37.283Z,46.86
2019-01-20T11:11:04.501Z,46.68
2019-01-20T11:13:31.751Z,46.68
2019-01-20T11:15:58.958Z,46.68
2019-01-20T11:18:26.114Z,46.68
2019-01-20T11:20:53.436Z,46.78
2019-01-20T11:23:22.373Z,46.73
2019-01-20T11:25:49.567Z,46.74
2019-01-20T11:28:16.782Z,46.57
2019-01-20T11:30:43.973Z,46.57
2019-01-20T11:33:11.183Z,46.46
2019-01-20T11:35:38.385Z,46.29
2019-01-20T11:38:05.736Z,46.29
2019-01-20T11:40:33.213Z,46.72
2019-01-20T11:43:00.404Z,46.72
2019-01-20T11:45:29.178Z,46.57
2019-01-20T11:47:56.362Z,46.63
2019-01-20T11:50:23.627Z,46.61
2019-01-20T11:52:50.870Z,46.33
2019-01-20T11:55:19.254Z,46.33
2019-01-20T11:57:46.456Z,46.56
2019-01-20T12:00:24.927Z,46.60
2019-01-20T12:02:52.114Z,46.65
2019-01-20T12:05:19.395Z,46.75
2019-01-20T12:07:46.642Z,46.52
2019-01-20T12:10:13.848Z,46.55
2019-01-20T12:12:42.367Z,46.52
2019-01-20T12:15:10.584Z,46.53
2019-01-20T12:17:37.813Z,46.47
2019-01-20T12:20:06.917Z,46.53
2019-01-20T12:22:34.105Z,46.51
2019-01-20T12:25:01.280Z,46.28
2019-01-20T12:27:28.458Z,46.28
2019-01-20T12:29:55.668Z,46.52
2019-01-20T12:32:22.888Z,46.61
2019-01-20T12:34:50.226Z,46.50
2019-01-20T12:37:17.395Z,46.50
2019-01-20T12:39:44.563Z,46.37
2019-01-20T12:42:11.793Z,46.52
2019-01-20T12:44:38.972Z,46.52
2019-01-20T12:47:06.165Z,46.54
2019-01-20T12:49:33.336Z,46.47
2019-01-20T12:52:00.582Z,45.95
2019-01-20T12:54:27.774Z,45.95
2019-01-20T12:56:54.980Z,46.12
2019-01-20T12:59:22.189Z,46.05
2019-01-20T13:01:49.418Z,46.01
2019-01-20T13:04:16.621Z,46.03
2019-01-20T13:06:43.786Z,46.09
2019-01-20T13:09:10.998Z,46.02
2019-01-20T13:11:38.169Z,46.00
2019-01-20T13:14:05.367Z,46.06
2019-01-20T13:16:32.534Z,46.15
2019-01-20T13:18:59.747Z,46.10
2019-01-20T13:21:26.935Z,46.01
2019-01-20T13:23:54.172Z,45.90
2019-01-20T13:26:21.387Z,45.92
2019-01-20T13:28:48.622Z,45.94
2019-01-20T13:31:15.796Z,45.93
2019-01-20T13:33:42.987Z,45.84
2019-01-20T13:36:10.220Z,45.80
2019-01-20T13:38:37.383Z,45.81
2019-01-20T13:41:12.117Z,45.76
2019-01-20T13:43:39.287Z,45.61
2019-01-20T13:46:06.428Z,45.56
2019-01-20T13:48:33.623Z,45.46
2019-01-20T13:51:00.814Z,45.37
2019-01-20T13:53:28.000Z,45.27
2019-01-20T13:56:01.217Z,45.24
2019-01-20T13:58:24.254Z,45.27
2019-01-20T14:00:51.440Z,45.23
2019-01-20T14:03:18.621Z,45.27
2019-01-20T14:05:45.789Z,45.29
2019-01-20T14:08:13.015Z,45.36
2019-01-20T14:10:40.183Z,45.41
2019-01-20T14:13:07.402Z,45.50
2019-01-20T14:15:34.538Z,45.47
2019-01-20T14:18:01.735Z,45.55
2019-01-20T14:20:28.894Z,45.57
2019-01-20T14:22:56.109Z,45.63
2019-01-20T14:25:24.189Z,45.65
2019-01-20T14:27:51.371Z,45.66
2019-01-20T14:30:21.066Z,45.74
2019-01-20T14:32:48.232Z,45.65
2019-01-20T14:35:15.443Z,45.64
2019-01-20T14:37:42.638Z,45.66
2019-01-20T14:40:11.305Z,45.60
2019-01-20T14:42:38.468Z,45.62
2019-01-20T14:45:06.550Z,45.66
2019-01-20T14:47:33.730Z,45.72
2019-01-20T14:50:00.976Z,45.73
2019-01-20T14:52:28.168Z,45.78
2019-01-20T14:54:55.339Z,45.69
2019-01-20T14:57:22.533Z,45.84
2019-01-20T14:59:49.702Z,45.85
2019-01-20T15:02:17.005Z,45.91
2019-01-20T15:04:44.194Z,45.87
2019-01-20T15:07:11.392Z,45.69
2019-01-20T15:09:38.642Z,45.63
2019-01-20T15:12:05.833Z,45.70
2019-01-20T15:14:33.050Z,45.75
2019-01-20T15:17:01.077Z,45.84
2019-01-20T15:19:28.424Z,45.84
2019-01-20T15:21:55.624Z,45.90
2019-01-20T15:24:22.921Z,45.93
2019-01-20T15:26:50.228Z,46.01
2019-01-20T15:29:17.409Z,46.15
2019-01-20T15:31:44.643Z,46.27
2019-01-20T15:34:11.870Z,46.31
2019-01-20T15:36:39.043Z,46.41
2019-01-20T15:39:07.352Z,46.50
2019-01-20T15:41:34.616Z,46.54
2019-01-20T15:44:01.790Z,46.64
2019-01-20T15:46:28.986Z,46.67
2019-01-20T15:48:56.170Z,46.68
2019-01-20T15:51:23.371Z,46.71
2019-01-20T15:53:50.545Z,46.75
2019-01-20T15:56:17.730Z,46.76
2019-01-20T15:58:45.037Z,46.79
2019-01-20T16:01:12.233Z,46.88
2019-01-20T16:03:39.438Z,46.90
2019-01-20T16:06:06.643Z,46.98
2019-01-20T16:08:33.838Z,47.15
2019-01-20T16:11:01.181Z,47.24
2019-01-20T16:13:28.351Z,47.26
2019-01-20T16:15:55.528Z,47.26
2019-01-20T16:18:22.710Z,47.32
2019-01-20T16:20:49.912Z,47.76
2019-01-20T16:23:17.137Z,47.67
2019-01-20T16:25:44.350Z,47.67
2019-01-20T16:28:11.601Z,47.31
2019-01-20T16:30:39.573Z,47.33
2019-01-20T16:33:06.752Z,47.42
2019-01-20T16:35:33.976Z,47.56
2019-01-20T16:38:02.014Z,47.54
2019-01-20T16:40:29.298Z,47.43
2019-01-20T16:42:56.502Z,47.43
2019-01-20T16:45:42.175Z,47.50
2019-01-20T16:48:07.582Z,47.62
2019-01-20T16:50:34.817Z,47.67
2019-01-20T16:53:02.006Z,47.77
2019-01-20T16:55:29.154Z,47.75
2019-01-20T16:57:56.371Z,47.77
2019-01-20T17:00:28.383Z,47.61
2019-01-20T17:02:55.655Z,47.61
2019-01-20T17:05:26.798Z,47.84
2019-01-20T17:07:51.979Z,48.01
2019-01-20T17:10:21.274Z,47.98
2019-01-20T17:12:48.462Z,47.86
2019-01-20T17:15:18.156Z,47.86
2019-01-20T17:17:45.467Z,47.91
2019-01-20T17:20:13.708Z,47.86
2019-01-20T17:22:40.925Z,48.09
2019-01-20T17:25:08.667Z,48.04
2019-01-20T17:27:35.921Z,47.67
2019-01-20T17:30:04.158Z,47.67
2019-01-20T17:32:31.333Z,47.78
2019-01-20T17:34:58.573Z,48.05
2019-01-20T17:37:25.800Z,48.05
2019-01-20T17:39:53.039Z,48.08
2019-01-20T17:42:20.232Z,48.17
2019-01-20T17:44:47.553Z,48.03
2019-01-20T17:47:14.710Z,48.03
2019-01-20T17:49:41.910Z,48.01
2019-01-20T17:52:09.163Z,48.01
2019-01-20T17:54:36.375Z,48.28
2019-01-20T17:57:03.531Z,48.28
2019-01-20T17:59:30.852Z,48.26
2019-01-20T18:01:58.128Z,48.26
2019-01-20T18:04:25.312Z,48.28
2019-01-20T18:06:52.514Z,48.20
2019-01-20T18:09:19.754Z,48.20
2019-01-20T18:11:47.089Z,48.32
2019-01-20T18:14:14.250Z,48.25
2019-01-20T18:16:41.411Z,48.06
2019-01-20T18:19:08.600Z,48.06
2019-01-20T18:21:35.757Z,48.47
2019-01-20T18:24:03.098Z,48.75
2019-01-20T18:26:30.378Z,48.47
2019-01-20T18:28:57.571Z,48.47
2019-01-20T18:31:24.784Z,48.28
2019-01-20T18:33:51.969Z,48.32
2019-01-20T18:36:19.272Z,48.36
2019-01-20T18:38:46.434Z,48.37
2019-01-20T18:41:13.604Z,48.37
2019-01-20T18:43:40.807Z,48.38
2019-01-20T18:46:08.031Z,48.38
2019-01-20T18:48:35.241Z,48.43
2019-01-20T18:51:02.383Z,48.47
2019-01-20T18:53:29.616Z,48.74
2019-01-20T18:55:56.791Z,48.74
2019-01-20T18:58:23.992Z,48.48
2019-01-20T19:00:52.163Z,48.58
2019-01-20T19:03:19.363Z,48.37
2019-01-20T19:05:46.570Z,48.37
2019-01-20T19:08:13.748Z,48.58
2019-01-20T19:10:41.014Z,48.53
2019-01-20T19:13:08.170Z,48.57
2019-01-20T19:15:35.407Z,48.61
2019-01-20T19:18:02.601Z,48.61
2019-01-20T19:20:29.817Z,48.56
2019-01-20T19:22:57.006Z,48.62
2019-01-20T19:25:24.259Z,48.64
2019-01-20T19:27:51.471Z,48.66
2019-01-20T19:30:20.817Z,48.69
2019-01-20T19:32:48.054Z,48.74
2019-01-20T19:35:15.238Z,48.70
2019-01-20T19:37:42.465Z,48.67
2019-01-20T19:40:09.878Z,48.41
2019-01-20T19:42:37.080Z,48.41
2019-01-20T19:45:05.432Z,48.61
2019-01-20T19:47:32.602Z,48.61
2019-01-20T19:49:59.804Z,48.55
2019-01-20T19:52:27.017Z,48.55
2019-01-20T19:54:54.209Z,48.66
2019-01-20T19:57:21.366Z,48.62
2019-01-20T19:59:48.577Z,48.74
2019-01-20T20:02:15.778Z,48.77
2019-01-20T20:04:42.964Z,48.81
2019-01-20T20:07:10.192Z,48.41
2019-01-20T20:09:37.486Z,48.41
2019-01-20T20:12:04.634Z,48.62
2019-01-20T20:14:31.868Z,48.48
2019-01-20T20:16:59.029Z,48.68
2019-01-20T20:19:26.266Z,48.61
2019-01-20T20:21:53.483Z,48.63
2019-01-20T20:24:25.316Z,48.69
2019-01-20T20:26:49.770Z,48.75
2019-01-20T20:29:17.253Z,48.83
2019-01-20T20:31:44.689Z,48.87
2019-01-20T20:34:11.988Z,48.89
2019-01-20T20:36:41.330Z,48.89
2019-01-20T20:39:08.918Z,48.97
2019-01-20T20:41:36.436Z,49.13
2019-01-20T20:44:03.667Z,49.11
2019-01-20T20:46:30.892Z,49.70
2019-01-20T20:48:58.095Z,49.52
2019-01-20T20:51:25.302Z,49.52
2019-01-20T20:53:52.498Z,49.73
2019-01-20T20:56:19.790Z,49.80
2019-01-20T20:58:46.976Z,49.95
2019-01-20T21:01:14.180Z,50.02
2019-01-20T21:03:41.566Z,49.72
2019-01-20T21:06:08.758Z,49.72
2019-01-20T21:08:36.054Z,49.59
2019-01-20T21:11:03.240Z,49.69
2019-01-20T21:13:30.407Z,49.79
2019-01-20T21:15:57.627Z,49.79
2019-01-20T21:18:24.835Z,49.83
2019-01-20T21:20:52.763Z,49.80
2019-01-20T21:23:19.989Z,49.98
2019-01-20T21:25:47.210Z,49.98
2019-01-20T21:28:14.445Z,49.99
2019-01-20T21:30:41.604Z,49.89
2019-01-20T21:33:08.759Z,49.89
2019-01-20T21:35:35.985Z,50.06
2019-01-20T21:38:07.001Z,50.13
2019-01-20T21:40:32.229Z,50.07
2019-01-20T21:42:59.389Z,50.11
2019-01-20T21:45:26.606Z,50.28
2019-01-20T21:47:53.819Z,50.19
2019-01-20T21:50:26.244Z,50.19
2019-01-20T21:52:53.434Z,50.20
2019-01-20T21:55:20.585Z,50.22
2019-01-20T21:57:47.878Z,50.19
2019-01-20T22:00:17.314Z,50.46
2019-01-20T22:02:44.516Z,50.46
2019-01-20T22:05:11.724Z,50.35
2019-01-20T22:07:38.887Z,50.35
2019-01-20T22:10:09.114Z,50.36
2019-01-20T22:12:36.299Z,50.51
2019-01-20T22:15:03.701Z,50.45
2019-01-20T22:17:30.854Z,50.46
2019-01-20T22:19:58.200Z,50.45
2019-01-20T22:22:25.379Z,50.62
2019-01-20T22:24:52.540Z,50.56
2019-01-20T22:27:19.727Z,50.53
2019-01-20T22:29:46.897Z,50.61
2019-01-20T22:32:14.283Z,50.63
2019-01-20T22:34:41.455Z,50.69
2019-01-20T22:37:08.679Z,51.03
2019-01-20T22:39:35.980Z,51.80
2019-01-20T22:42:03.202Z,51.80
2019-01-20T22:44:30.393Z,51.59
2019-01-20T22:47:00.228Z,51.50
2019-01-20T22:49:26.657Z,51.53
2019-01-20T22:51:53.909Z,51.77
2019-01-20T22:54:21.089Z,51.88
2019-01-20T22:56:48.266Z,51.93
2019-01-20T22:59:15.596Z,51.91
2019-01-20T23:01:42.870Z,52.17
2019-01-20T23:04:10.071Z,52.29
2019-01-20T23:06:37.259Z,52.18
2019-01-20T23:09:06.769Z,52.28
2019-01-20T23:11:34.152Z,52.32
2019-01-20T23:14:01.379Z,52.70
2019-01-20T23:16:28.557Z,52.33
2019-01-20T23:18:55.741Z,52.28
2019-01-20T23:21:22.905Z,52.24
2019-01-20T23:23:50.116Z,52.21
2019-01-20T23:26:17.322Z,52.34
2019-01-20T23:28:44.684Z,52.26
2019-01-20T23:31:11.849Z,52.33
2019-01-20T23:33:39.058Z,52.14
2019-01-20T23:36:06.275Z,52.12
2019-01-20T23:38:33.499Z,52.09
2019-01-20T23:41:01.177Z,52.17
2019-01-20T23:43:28.339Z,52.27
2019-01-20T23:45:55.485Z,52.38
2019-01-20T23:48:22.811Z,52.55
2019-01-20T23:50:49.979Z,52.95
2019-01-20T23:53:17.176Z,52.99
2019-01-20T23:55:44.377Z,53.26
2019-01-20T23:58:11.608Z,53.42
